sensor_id;sensor_type;location;lat;lon;timestamp;pressure;altitude;pressure_sealevel;temperature;humidity
34034;BME280;63481;52.588;22.472;2023-04-19T00:00:12;100529.43;;;7.35;86.68
34034;BME280;63481;52.588;22.472;2023-04-19T00:01:07;100529.05;;;7.32;86.59
34034;BME280;63481;52.588;22.472;2023-04-19T00:01:39;100526.34;;;7.28;86.87
34034;BME280;63481;52.588;22.472;2023-04-19T00:02:14;100527.55;;;7.25;87.18
34034;BME280;63481;52.588;22.472;2023-04-19T00:02:47;100525.88;;;7.23;87.41
34034;BME280;63481;52.588;22.472;2023-04-19T00:03:19;100527.18;;;7.20;87.60
34034;BME280;63481;52.588;22.472;2023-04-19T00:03:52;100526.25;;;7.21;87.31
34034;BME280;63481;52.588;22.472;2023-04-19T00:04:24;100526.98;;;7.20;87.51
34034;BME280;63481;52.588;22.472;2023-04-19T00:04:56;100525.64;;;7.20;87.53
34034;BME280;63481;52.588;22.472;2023-04-19T00:05:28;100525.89;;;7.23;87.19
34034;BME280;63481;52.588;22.472;2023-04-19T00:06:00;100524.25;;;7.23;87.23
34034;BME280;63481;52.588;22.472;2023-04-19T00:06:31;100521.52;;;7.25;87.25
34034;BME280;63481;52.588;22.472;2023-04-19T00:07:03;100522.56;;;7.24;87.10
34034;BME280;63481;52.588;22.472;2023-04-19T00:07:36;100519.52;;;7.21;87.23
34034;BME280;63481;52.588;22.472;2023-04-19T00:08:08;100517.25;;;7.19;87.43
34034;BME280;63481;52.588;22.472;2023-04-19T00:08:42;100518.57;;;7.20;87.46
34034;BME280;63481;52.588;22.472;2023-04-19T00:09:14;100520.89;;;7.19;87.24
34034;BME280;63481;52.588;22.472;2023-04-19T00:09:46;100517.92;;;7.18;87.12
34034;BME280;63481;52.588;22.472;2023-04-19T00:10:18;100516.36;;;7.17;87.49
34034;BME280;63481;52.588;22.472;2023-04-19T00:10:51;100518.69;;;7.17;87.44
34034;BME280;63481;52.588;22.472;2023-04-19T00:11:26;100515.18;;;7.15;87.44
34034;BME280;63481;52.588;22.472;2023-04-19T00:11:58;100512.64;;;7.16;87.60
34034;BME280;63481;52.588;22.472;2023-04-19T00:12:29;100513.31;;;7.15;87.68
34034;BME280;63481;52.588;22.472;2023-04-19T00:13:01;100513.63;;;7.15;87.40
34034;BME280;63481;52.588;22.472;2023-04-19T00:13:34;100512.99;;;7.16;87.23
34034;BME280;63481;52.588;22.472;2023-04-19T00:14:06;100509.88;;;7.15;87.47
34034;BME280;63481;52.588;22.472;2023-04-19T00:14:38;100512.08;;;7.15;87.18
34034;BME280;63481;52.588;22.472;2023-04-19T00:15:10;100509.55;;;7.15;87.56
34034;BME280;63481;52.588;22.472;2023-04-19T00:15:42;100510.65;;;7.15;87.30
34034;BME280;63481;52.588;22.472;2023-04-19T00:16:15;100507.65;;;7.13;87.68
34034;BME280;63481;52.588;22.472;2023-04-19T00:16:47;100506.04;;;7.12;87.94
34034;BME280;63481;52.588;22.472;2023-04-19T00:17:19;100505.54;;;7.12;87.92
34034;BME280;63481;52.588;22.472;2023-04-19T00:17:52;100506.96;;;7.12;87.48
34034;BME280;63481;52.588;22.472;2023-04-19T00:18:24;100504.02;;;7.09;87.54
34034;BME280;63481;52.588;22.472;2023-04-19T00:18:55;100501.48;;;7.09;88.00
34034;BME280;63481;52.588;22.472;2023-04-19T00:19:28;100500.91;;;7.09;88.02
34034;BME280;63481;52.588;22.472;2023-04-19T00:20:00;100499.02;;;7.12;87.71
34034;BME280;63481;52.588;22.472;2023-04-19T00:20:32;100497.02;;;7.14;87.26
34034;BME280;63481;52.588;22.472;2023-04-19T00:21:04;100497.74;;;7.16;87.28
34034;BME280;63481;52.588;22.472;2023-04-19T00:21:36;100497.23;;;7.15;87.13
34034;BME280;63481;52.588;22.472;2023-04-19T00:22:09;100492.46;;;7.13;87.27
34034;BME280;63481;52.588;22.472;2023-04-19T00:22:44;100490.73;;;7.11;87.70
34034;BME280;63481;52.588;22.472;2023-04-19T00:23:16;100488.86;;;7.12;87.55
34034;BME280;63481;52.588;22.472;2023-04-19T00:23:48;100488.48;;;7.14;87.46
34034;BME280;63481;52.588;22.472;2023-04-19T00:24:20;100486.58;;;7.10;87.78
34034;BME280;63481;52.588;22.472;2023-04-19T00:24:52;100486.92;;;7.09;87.57
34034;BME280;63481;52.588;22.472;2023-04-19T00:25:25;100483.89;;;7.08;87.39
34034;BME280;63481;52.588;22.472;2023-04-19T00:25:57;100485.09;;;7.08;87.50
34034;BME280;63481;52.588;22.472;2023-04-19T00:26:29;100481.47;;;7.07;87.25
34034;BME280;63481;52.588;22.472;2023-04-19T00:27:01;100481.80;;;7.08;87.47
34034;BME280;63481;52.588;22.472;2023-04-19T00:27:33;100480.36;;;7.06;87.75
34034;BME280;63481;52.588;22.472;2023-04-19T00:28:05;100479.34;;;7.06;87.56
34034;BME280;63481;52.588;22.472;2023-04-19T00:28:38;100477.52;;;7.05;87.84
34034;BME280;63481;52.588;22.472;2023-04-19T00:29:10;100476.63;;;7.04;87.53
34034;BME280;63481;52.588;22.472;2023-04-19T00:29:43;100477.80;;;7.03;87.76
34034;BME280;63481;52.588;22.472;2023-04-19T00:30:15;100472.27;;;7.01;87.90
34034;BME280;63481;52.588;22.472;2023-04-19T00:30:47;100471.20;;;7.03;88.06
34034;BME280;63481;52.588;22.472;2023-04-19T00:31:19;100472.66;;;7.07;87.40
34034;BME280;63481;52.588;22.472;2023-04-19T00:31:51;100470.86;;;7.07;87.55
34034;BME280;63481;52.588;22.472;2023-04-19T00:32:23;100471.66;;;7.07;87.46
34034;BME280;63481;52.588;22.472;2023-04-19T00:32:55;100470.39;;;7.05;87.62
34034;BME280;63481;52.588;22.472;2023-04-19T00:33:29;100473.13;;;7.05;87.89
34034;BME280;63481;52.588;22.472;2023-04-19T00:34:02;100471.15;;;7.04;87.81
34034;BME280;63481;52.588;22.472;2023-04-19T00:34:34;100469.58;;;7.02;87.63
34034;BME280;63481;52.588;22.472;2023-04-19T00:35:09;100471.04;;;6.98;87.91
34034;BME280;63481;52.588;22.472;2023-04-19T00:35:41;100470.42;;;6.98;87.79
34034;BME280;63481;52.588;22.472;2023-04-19T00:36:13;100472.79;;;6.99;87.84
34034;BME280;63481;52.588;22.472;2023-04-19T00:36:45;100470.80;;;6.99;88.01
34034;BME280;63481;52.588;22.472;2023-04-19T00:37:18;100470.70;;;7.00;87.99
34034;BME280;63481;52.588;22.472;2023-04-19T00:37:49;100469.91;;;7.02;87.83
34034;BME280;63481;52.588;22.472;2023-04-19T00:38:21;100467.71;;;7.04;87.81
34034;BME280;63481;52.588;22.472;2023-04-19T00:38:53;100467.03;;;7.05;87.60
34034;BME280;63481;52.588;22.472;2023-04-19T00:39:25;100470.00;;;7.07;87.69
34034;BME280;63481;52.588;22.472;2023-04-19T00:40:00;100470.36;;;7.07;87.78
34034;BME280;63481;52.588;22.472;2023-04-19T00:40:33;100468.62;;;7.06;87.76
34034;BME280;63481;52.588;22.472;2023-04-19T00:41:05;100465.17;;;7.02;87.60
34034;BME280;63481;52.588;22.472;2023-04-19T00:41:37;100467.61;;;7.01;87.61
34034;BME280;63481;52.588;22.472;2023-04-19T00:42:09;100470.23;;;6.99;87.79
34034;BME280;63481;52.588;22.472;2023-04-19T00:42:41;100470.17;;;6.98;87.65
34034;BME280;63481;52.588;22.472;2023-04-19T00:43:17;100469.97;;;7.00;87.58
34034;BME280;63481;52.588;22.472;2023-04-19T00:43:50;100469.16;;;7.01;87.90
34034;BME280;63481;52.588;22.472;2023-04-19T00:44:23;100470.98;;;7.02;87.75
34034;BME280;63481;52.588;22.472;2023-04-19T00:44:55;100471.03;;;7.00;87.88
34034;BME280;63481;52.588;22.472;2023-04-19T00:45:27;100468.60;;;7.01;87.84
34034;BME280;63481;52.588;22.472;2023-04-19T00:45:59;100468.27;;;7.01;87.74
34034;BME280;63481;52.588;22.472;2023-04-19T00:46:31;100465.09;;;7.00;87.67
34034;BME280;63481;52.588;22.472;2023-04-19T00:47:04;100469.70;;;6.98;87.97
34034;BME280;63481;52.588;22.472;2023-04-19T00:47:37;100467.66;;;6.99;87.70
34034;BME280;63481;52.588;22.472;2023-04-19T00:48:10;100468.61;;;6.98;87.70
34034;BME280;63481;52.588;22.472;2023-04-19T00:48:43;100465.73;;;6.99;87.61
34034;BME280;63481;52.588;22.472;2023-04-19T00:49:19;100464.79;;;6.98;87.87
34034;BME280;63481;52.588;22.472;2023-04-19T00:49:51;100465.89;;;7.00;87.75
34034;BME280;63481;52.588;22.472;2023-04-19T00:50:23;100463.05;;;6.99;87.89
34034;BME280;63481;52.588;22.472;2023-04-19T00:50:55;100466.70;;;6.96;87.75
34034;BME280;63481;52.588;22.472;2023-04-19T00:51:28;100464.80;;;6.99;87.71
34034;BME280;63481;52.588;22.472;2023-04-19T00:52:00;100462.11;;;6.99;87.92
34034;BME280;63481;52.588;22.472;2023-04-19T00:52:33;100463.19;;;6.98;87.93
34034;BME280;63481;52.588;22.472;2023-04-19T00:53:06;100457.60;;;6.96;87.73
34034;BME280;63481;52.588;22.472;2023-04-19T00:53:39;100456.84;;;6.94;87.88
34034;BME280;63481;52.588;22.472;2023-04-19T00:54:12;100457.67;;;6.95;87.77
34034;BME280;63481;52.588;22.472;2023-04-19T00:54:45;100455.92;;;6.95;87.86
34034;BME280;63481;52.588;22.472;2023-04-19T00:55:18;100453.84;;;6.94;88.02
34034;BME280;63481;52.588;22.472;2023-04-19T00:55:51;100453.02;;;6.92;88.24
34034;BME280;63481;52.588;22.472;2023-04-19T00:56:25;100452.00;;;6.92;87.97
34034;BME280;63481;52.588;22.472;2023-04-19T00:56:58;100452.66;;;6.91;88.16
34034;BME280;63481;52.588;22.472;2023-04-19T00:57:30;100451.37;;;6.91;88.33
34034;BME280;63481;52.588;22.472;2023-04-19T00:58:02;100448.89;;;6.92;88.33
34034;BME280;63481;52.588;22.472;2023-04-19T00:58:35;100449.61;;;6.91;88.02
34034;BME280;63481;52.588;22.472;2023-04-19T00:59:13;100445.96;;;6.88;88.13
34034;BME280;63481;52.588;22.472;2023-04-19T00:59:46;100445.59;;;6.87;88.28
34034;BME280;63481;52.588;22.472;2023-04-19T01:00:18;100442.97;;;6.86;88.43
34034;BME280;63481;52.588;22.472;2023-04-19T01:00:51;100441.96;;;6.87;88.19
34034;BME280;63481;52.588;22.472;2023-04-19T01:01:23;100441.34;;;6.85;88.38
34034;BME280;63481;52.588;22.472;2023-04-19T01:01:55;100442.42;;;6.85;88.34
34034;BME280;63481;52.588;22.472;2023-04-19T01:02:27;100440.20;;;6.84;88.58
34034;BME280;63481;52.588;22.472;2023-04-19T01:02:59;100439.56;;;6.85;88.76
34034;BME280;63481;52.588;22.472;2023-04-19T01:03:32;100440.09;;;6.85;88.62
34034;BME280;63481;52.588;22.472;2023-04-19T01:04:05;100435.36;;;6.83;88.82
34034;BME280;63481;52.588;22.472;2023-04-19T01:04:37;100436.39;;;6.83;88.44
34034;BME280;63481;52.588;22.472;2023-04-19T01:05:11;100438.00;;;6.85;88.65
34034;BME280;63481;52.588;22.472;2023-04-19T01:05:44;100433.39;;;6.82;88.78
34034;BME280;63481;52.588;22.472;2023-04-19T01:06:18;100434.40;;;6.84;88.84
34034;BME280;63481;52.588;22.472;2023-04-19T01:06:50;100431.69;;;6.83;88.82
34034;BME280;63481;52.588;22.472;2023-04-19T01:07:22;100433.48;;;6.83;88.83
34034;BME280;63481;52.588;22.472;2023-04-19T01:07:54;100431.19;;;6.83;88.85
34034;BME280;63481;52.588;22.472;2023-04-19T01:08:26;100427.77;;;6.83;88.88
34034;BME280;63481;52.588;22.472;2023-04-19T01:08:59;100430.79;;;6.85;88.97
34034;BME280;63481;52.588;22.472;2023-04-19T01:09:31;100432.98;;;6.85;89.08
34034;BME280;63481;52.588;22.472;2023-04-19T01:10:03;100430.61;;;6.86;88.72
34034;BME280;63481;52.588;22.472;2023-04-19T01:10:35;100432.44;;;6.82;88.94
34034;BME280;63481;52.588;22.472;2023-04-19T01:11:07;100433.87;;;6.80;89.14
34034;BME280;63481;52.588;22.472;2023-04-19T01:11:39;100430.11;;;6.77;89.12
34034;BME280;63481;52.588;22.472;2023-04-19T01:12:11;100435.02;;;6.79;89.19
34034;BME280;63481;52.588;22.472;2023-04-19T01:12:46;100428.83;;;6.80;89.12
34034;BME280;63481;52.588;22.472;2023-04-19T01:13:18;100430.68;;;6.81;89.25
34034;BME280;63481;52.588;22.472;2023-04-19T01:13:51;100428.21;;;6.82;88.71
34034;BME280;63481;52.588;22.472;2023-04-19T01:14:23;100430.71;;;6.81;88.88
34034;BME280;63481;52.588;22.472;2023-04-19T01:14:55;100430.00;;;6.79;89.27
34034;BME280;63481;52.588;22.472;2023-04-19T01:15:27;100429.27;;;6.78;89.17
34034;BME280;63481;52.588;22.472;2023-04-19T01:15:59;100431.17;;;6.80;89.10
34034;BME280;63481;52.588;22.472;2023-04-19T01:16:31;100427.94;;;6.79;88.97
34034;BME280;63481;52.588;22.472;2023-04-19T01:17:05;100427.09;;;6.77;89.16
34034;BME280;63481;52.588;22.472;2023-04-19T01:17:38;100427.25;;;6.77;89.23
34034;BME280;63481;52.588;22.472;2023-04-19T01:18:10;100432.41;;;6.76;89.34
34034;BME280;63481;52.588;22.472;2023-04-19T01:18:42;100428.11;;;6.76;89.28
34034;BME280;63481;52.588;22.472;2023-04-19T01:19:14;100427.90;;;6.76;89.09
34034;BME280;63481;52.588;22.472;2023-04-19T01:19:47;100425.46;;;6.74;89.28
34034;BME280;63481;52.588;22.472;2023-04-19T01:20:19;100434.63;;;6.74;89.16
34034;BME280;63481;52.588;22.472;2023-04-19T01:20:51;100430.59;;;6.76;89.32
34034;BME280;63481;52.588;22.472;2023-04-19T01:21:23;100428.08;;;6.75;88.96
34034;BME280;63481;52.588;22.472;2023-04-19T01:21:58;100428.79;;;6.73;89.50
34034;BME280;63481;52.588;22.472;2023-04-19T01:22:30;100425.42;;;6.70;89.40
34034;BME280;63481;52.588;22.472;2023-04-19T01:23:03;100423.07;;;6.69;89.49
34034;BME280;63481;52.588;22.472;2023-04-19T01:23:35;100425.66;;;6.70;89.62
34034;BME280;63481;52.588;22.472;2023-04-19T01:24:07;100421.98;;;6.71;89.56
34034;BME280;63481;52.588;22.472;2023-04-19T01:24:39;100425.73;;;6.72;89.49
34034;BME280;63481;52.588;22.472;2023-04-19T01:25:11;100422.52;;;6.72;89.24
34034;BME280;63481;52.588;22.472;2023-04-19T01:25:43;100422.86;;;6.73;89.67
34034;BME280;63481;52.588;22.472;2023-04-19T01:26:15;100424.27;;;6.74;89.32
34034;BME280;63481;52.588;22.472;2023-04-19T01:26:47;100423.17;;;6.74;89.37
34034;BME280;63481;52.588;22.472;2023-04-19T01:27:19;100423.16;;;6.73;89.37
34034;BME280;63481;52.588;22.472;2023-04-19T01:27:52;100425.09;;;6.70;89.57
34034;BME280;63481;52.588;22.472;2023-04-19T01:28:24;100421.14;;;6.68;89.53
34034;BME280;63481;52.588;22.472;2023-04-19T01:28:56;100422.36;;;6.66;89.59
34034;BME280;63481;52.588;22.472;2023-04-19T01:29:28;100420.80;;;6.64;89.72
34034;BME280;63481;52.588;22.472;2023-04-19T01:30:03;100421.40;;;6.64;89.76
34034;BME280;63481;52.588;22.472;2023-04-19T01:30:35;100419.85;;;6.62;89.75
34034;BME280;63481;52.588;22.472;2023-04-19T01:31:07;100423.92;;;6.62;89.88
34034;BME280;63481;52.588;22.472;2023-04-19T01:31:41;100421.93;;;6.59;89.79
34034;BME280;63481;52.588;22.472;2023-04-19T01:32:14;100419.82;;;6.57;89.93
34034;BME280;63481;52.588;22.472;2023-04-19T01:32:46;100419.14;;;6.58;89.80
34034;BME280;63481;52.588;22.472;2023-04-19T01:33:19;100420.01;;;6.59;90.00
34034;BME280;63481;52.588;22.472;2023-04-19T01:33:51;100418.31;;;6.60;90.09
34034;BME280;63481;52.588;22.472;2023-04-19T01:34:23;100415.33;;;6.61;89.84
34034;BME280;63481;52.588;22.472;2023-04-19T01:34:55;100418.27;;;6.64;89.85
34034;BME280;63481;52.588;22.472;2023-04-19T01:35:27;100417.45;;;6.64;89.68
34034;BME280;63481;52.588;22.472;2023-04-19T01:35:59;100418.02;;;6.64;89.44
34034;BME280;63481;52.588;22.472;2023-04-19T01:36:31;100417.08;;;6.64;89.75
34034;BME280;63481;52.588;22.472;2023-04-19T01:37:03;100415.58;;;6.64;89.73
34034;BME280;63481;52.588;22.472;2023-04-19T01:37:36;100411.87;;;6.62;89.65
34034;BME280;63481;52.588;22.472;2023-04-19T01:38:08;100414.56;;;6.65;89.88
34034;BME280;63481;52.588;22.472;2023-04-19T01:38:40;100411.70;;;6.67;89.73
34034;BME280;63481;52.588;22.472;2023-04-19T01:39:14;100411.98;;;6.64;90.06
34034;BME280;63481;52.588;22.472;2023-04-19T01:39:46;100410.36;;;6.62;89.63
34034;BME280;63481;52.588;22.472;2023-04-19T01:40:19;100414.70;;;6.62;89.80
34034;BME280;63481;52.588;22.472;2023-04-19T01:40:51;100417.27;;;6.61;90.04
34034;BME280;63481;52.588;22.472;2023-04-19T01:41:23;100415.63;;;6.60;89.93
34034;BME280;63481;52.588;22.472;2023-04-19T01:41:57;100412.68;;;6.58;90.41
34034;BME280;63481;52.588;22.472;2023-04-19T01:42:32;100412.02;;;6.55;90.11
34034;BME280;63481;52.588;22.472;2023-04-19T01:43:12;100412.14;;;6.52;90.21
34034;BME280;63481;52.588;22.472;2023-04-19T01:43:44;100412.13;;;6.52;90.00
34034;BME280;63481;52.588;22.472;2023-04-19T01:44:16;100412.14;;;6.52;90.27
34034;BME280;63481;52.588;22.472;2023-04-19T01:44:48;100411.22;;;6.51;90.31
34034;BME280;63481;52.588;22.472;2023-04-19T01:45:20;100411.37;;;6.50;90.44
34034;BME280;63481;52.588;22.472;2023-04-19T01:45:55;100411.80;;;6.49;90.39
34034;BME280;63481;52.588;22.472;2023-04-19T01:46:27;100410.94;;;6.47;90.63
34034;BME280;63481;52.588;22.472;2023-04-19T01:46:59;100413.02;;;6.44;90.46
34034;BME280;63481;52.588;22.472;2023-04-19T01:47:31;100413.46;;;6.44;90.32
34034;BME280;63481;52.588;22.472;2023-04-19T01:48:06;100411.02;;;6.40;90.32
34034;BME280;63481;52.588;22.472;2023-04-19T01:48:39;100409.48;;;6.39;90.74
34034;BME280;63481;52.588;22.472;2023-04-19T01:49:11;100410.73;;;6.38;90.77
34034;BME280;63481;52.588;22.472;2023-04-19T01:49:43;100411.60;;;6.39;90.79
34034;BME280;63481;52.588;22.472;2023-04-19T01:50:15;100414.82;;;6.37;90.70
34034;BME280;63481;52.588;22.472;2023-04-19T01:50:47;100412.77;;;6.36;90.96
34034;BME280;63481;52.588;22.472;2023-04-19T01:51:19;100411.85;;;6.36;91.00
34034;BME280;63481;52.588;22.472;2023-04-19T01:51:52;100410.77;;;6.38;90.99
34034;BME280;63481;52.588;22.472;2023-04-19T01:52:25;100414.17;;;6.39;91.25
34034;BME280;63481;52.588;22.472;2023-04-19T01:52:58;100411.05;;;6.40;91.08
34034;BME280;63481;52.588;22.472;2023-04-19T01:53:31;100407.20;;;6.39;91.02
34034;BME280;63481;52.588;22.472;2023-04-19T01:54:03;100414.23;;;6.37;91.03
34034;BME280;63481;52.588;22.472;2023-04-19T01:54:35;100407.73;;;6.37;90.91
34034;BME280;63481;52.588;22.472;2023-04-19T01:55:07;100409.65;;;6.37;91.07
34034;BME280;63481;52.588;22.472;2023-04-19T01:55:41;100406.76;;;6.36;91.01
34034;BME280;63481;52.588;22.472;2023-04-19T01:56:13;100407.72;;;6.36;91.42
34034;BME280;63481;52.588;22.472;2023-04-19T01:56:45;100405.68;;;6.38;91.00
34034;BME280;63481;52.588;22.472;2023-04-19T01:57:17;100407.39;;;6.35;90.84
34034;BME280;63481;52.588;22.472;2023-04-19T01:57:49;100403.25;;;6.34;91.38
34034;BME280;63481;52.588;22.472;2023-04-19T01:58:23;100405.88;;;6.33;91.06
34034;BME280;63481;52.588;22.472;2023-04-19T01:58:56;100403.02;;;6.33;91.15
34034;BME280;63481;52.588;22.472;2023-04-19T01:59:28;100404.58;;;6.34;91.53
34034;BME280;63481;52.588;22.472;2023-04-19T02:00:00;100404.81;;;6.33;91.42
34034;BME280;63481;52.588;22.472;2023-04-19T02:00:33;100404.27;;;6.33;91.64
34034;BME280;63481;52.588;22.472;2023-04-19T02:01:09;100399.70;;;6.35;91.58
34034;BME280;63481;52.588;22.472;2023-04-19T02:01:43;100402.42;;;6.35;91.20
34034;BME280;63481;52.588;22.472;2023-04-19T02:02:15;100397.38;;;6.36;91.24
34034;BME280;63481;52.588;22.472;2023-04-19T02:02:47;100399.24;;;6.36;91.46
34034;BME280;63481;52.588;22.472;2023-04-19T02:03:20;100403.08;;;6.36;91.55
34034;BME280;63481;52.588;22.472;2023-04-19T02:03:54;100396.52;;;6.35;91.50
34034;BME280;63481;52.588;22.472;2023-04-19T02:04:26;100399.47;;;6.33;91.37
34034;BME280;63481;52.588;22.472;2023-04-19T02:04:58;100397.25;;;6.35;91.34
34034;BME280;63481;52.588;22.472;2023-04-19T02:05:32;100391.84;;;6.33;91.53
34034;BME280;63481;52.588;22.472;2023-04-19T02:06:04;100395.53;;;6.34;91.41
34034;BME280;63481;52.588;22.472;2023-04-19T02:06:37;100398.21;;;6.34;91.62
34034;BME280;63481;52.588;22.472;2023-04-19T02:07:09;100395.15;;;6.33;91.60
34034;BME280;63481;52.588;22.472;2023-04-19T02:07:41;100395.15;;;6.33;91.56
34034;BME280;63481;52.588;22.472;2023-04-19T02:08:13;100394.10;;;6.31;91.56
34034;BME280;63481;52.588;22.472;2023-04-19T02:08:45;100395.90;;;6.29;91.63
34034;BME280;63481;52.588;22.472;2023-04-19T02:09:18;100395.44;;;6.29;91.78
34034;BME280;63481;52.588;22.472;2023-04-19T02:09:51;100393.81;;;6.29;91.77
34034;BME280;63481;52.588;22.472;2023-04-19T02:10:24;100392.78;;;6.29;91.70
34034;BME280;63481;52.588;22.472;2023-04-19T02:10:57;100393.95;;;6.29;91.71
34034;BME280;63481;52.588;22.472;2023-04-19T02:11:29;100396.06;;;6.30;91.61
34034;BME280;63481;52.588;22.472;2023-04-19T02:12:01;100392.52;;;6.30;91.95
34034;BME280;63481;52.588;22.472;2023-04-19T02:12:34;100392.65;;;6.28;91.79
34034;BME280;63481;52.588;22.472;2023-04-19T02:13:08;100394.10;;;6.27;91.62
34034;BME280;63481;52.588;22.472;2023-04-19T02:13:40;100392.77;;;6.26;91.96
34034;BME280;63481;52.588;22.472;2023-04-19T02:14:12;100395.85;;;6.25;91.96
34034;BME280;63481;52.588;22.472;2023-04-19T02:14:44;100395.00;;;6.25;91.90
34034;BME280;63481;52.588;22.472;2023-04-19T02:15:16;100394.39;;;6.25;92.10
34034;BME280;63481;52.588;22.472;2023-04-19T02:15:48;100392.27;;;6.26;91.87
34034;BME280;63481;52.588;22.472;2023-04-19T02:16:21;100393.41;;;6.25;91.77
34034;BME280;63481;52.588;22.472;2023-04-19T02:16:54;100392.39;;;6.25;92.22
34034;BME280;63481;52.588;22.472;2023-04-19T02:17:27;100392.42;;;6.24;91.87
34034;BME280;63481;52.588;22.472;2023-04-19T02:17:59;100395.15;;;6.22;91.92
34034;BME280;63481;52.588;22.472;2023-04-19T02:18:32;100396.11;;;6.20;91.99
34034;BME280;63481;52.588;22.472;2023-04-19T02:19:05;100395.98;;;6.18;92.10
34034;BME280;63481;52.588;22.472;2023-04-19T02:19:38;100396.15;;;6.20;92.16
34034;BME280;63481;52.588;22.472;2023-04-19T02:20:10;100393.73;;;6.21;92.16
34034;BME280;63481;52.588;22.472;2023-04-19T02:20:42;100394.17;;;6.18;92.23
34034;BME280;63481;52.588;22.472;2023-04-19T02:21:14;100394.07;;;6.18;92.24
34034;BME280;63481;52.588;22.472;2023-04-19T02:21:46;100392.42;;;6.18;92.19
34034;BME280;63481;52.588;22.472;2023-04-19T02:22:19;100394.81;;;6.18;92.17
34034;BME280;63481;52.588;22.472;2023-04-19T02:22:54;100393.22;;;6.18;92.04
34034;BME280;63481;52.588;22.472;2023-04-19T02:23:27;100394.27;;;6.17;92.10
34034;BME280;63481;52.588;22.472;2023-04-19T02:24:02;100391.77;;;6.19;92.14
34034;BME280;63481;52.588;22.472;2023-04-19T02:24:35;100390.44;;;6.19;92.11
34034;BME280;63481;52.588;22.472;2023-04-19T02:25:07;100390.21;;;6.18;92.22
34034;BME280;63481;52.588;22.472;2023-04-19T02:25:39;100394.62;;;6.16;92.41
34034;BME280;63481;52.588;22.472;2023-04-19T02:26:11;100394.46;;;6.16;92.39
34034;BME280;63481;52.588;22.472;2023-04-19T02:26:44;100393.23;;;6.16;92.45
34034;BME280;63481;52.588;22.472;2023-04-19T02:27:16;100390.98;;;6.17;92.38
34034;BME280;63481;52.588;22.472;2023-04-19T02:27:48;100392.03;;;6.17;92.41
34034;BME280;63481;52.588;22.472;2023-04-19T02:28:22;100388.66;;;6.16;92.42
34034;BME280;63481;52.588;22.472;2023-04-19T02:28:54;100386.25;;;6.17;92.58
34034;BME280;63481;52.588;22.472;2023-04-19T02:29:26;100385.13;;;6.16;92.30
34034;BME280;63481;52.588;22.472;2023-04-19T02:29:58;100383.89;;;6.13;92.33
34034;BME280;63481;52.588;22.472;2023-04-19T02:30:30;100386.52;;;6.10;92.34
34034;BME280;63481;52.588;22.472;2023-04-19T02:31:04;100387.45;;;6.08;92.41
34034;BME280;63481;52.588;22.472;2023-04-19T02:31:39;100383.39;;;6.08;92.67
34034;BME280;63481;52.588;22.472;2023-04-19T02:32:14;100385.02;;;6.06;92.54
34034;BME280;63481;52.588;22.472;2023-04-19T02:32:47;100383.92;;;6.06;92.77
34034;BME280;63481;52.588;22.472;2023-04-19T02:33:20;100384.27;;;6.09;92.91
34034;BME280;63481;52.588;22.472;2023-04-19T02:33:53;100384.62;;;6.11;92.76
34034;BME280;63481;52.588;22.472;2023-04-19T02:34:26;100382.03;;;6.12;92.79
34034;BME280;63481;52.588;22.472;2023-04-19T02:34:58;100377.86;;;6.13;92.80
34034;BME280;63481;52.588;22.472;2023-04-19T02:35:30;100380.56;;;6.12;92.76
34034;BME280;63481;52.588;22.472;2023-04-19T02:36:03;100381.58;;;6.10;92.76
34034;BME280;63481;52.588;22.472;2023-04-19T02:36:35;100376.59;;;6.09;92.83
34034;BME280;63481;52.588;22.472;2023-04-19T02:37:07;100377.65;;;6.09;92.72
34034;BME280;63481;52.588;22.472;2023-04-19T02:37:40;100382.52;;;6.08;93.11
34034;BME280;63481;52.588;22.472;2023-04-19T02:38:12;100375.98;;;6.08;92.97
34034;BME280;63481;52.588;22.472;2023-04-19T02:38:44;100373.09;;;6.11;93.12
34034;BME280;63481;52.588;22.472;2023-04-19T02:39:18;100376.07;;;6.13;93.17
34034;BME280;63481;52.588;22.472;2023-04-19T02:39:50;100373.61;;;6.15;92.78
34034;BME280;63481;52.588;22.472;2023-04-19T02:40:22;100376.42;;;6.16;92.82
34034;BME280;63481;52.588;22.472;2023-04-19T02:40:55;100372.61;;;6.16;92.77
34034;BME280;63481;52.588;22.472;2023-04-19T02:41:27;100372.73;;;6.16;92.98
34034;BME280;63481;52.588;22.472;2023-04-19T02:41:59;100373.50;;;6.16;92.90
34034;BME280;63481;52.588;22.472;2023-04-19T02:42:32;100372.85;;;6.17;92.88
34034;BME280;63481;52.588;22.472;2023-04-19T02:43:04;100371.70;;;6.17;92.80
34034;BME280;63481;52.588;22.472;2023-04-19T02:43:36;100368.87;;;6.20;92.82
34034;BME280;63481;52.588;22.472;2023-04-19T02:44:09;100368.35;;;6.21;92.98
34034;BME280;63481;52.588;22.472;2023-04-19T02:44:41;100365.73;;;6.20;92.94
34034;BME280;63481;52.588;22.472;2023-04-19T02:45:14;100367.39;;;6.19;92.95
34034;BME280;63481;52.588;22.472;2023-04-19T02:45:46;100366.13;;;6.17;93.05
34034;BME280;63481;52.588;22.472;2023-04-19T02:46:18;100368.34;;;6.20;93.16
34034;BME280;63481;52.588;22.472;2023-04-19T02:46:50;100366.96;;;6.22;93.18
34034;BME280;63481;52.588;22.472;2023-04-19T02:47:23;100365.86;;;6.22;92.75
34034;BME280;63481;52.588;22.472;2023-04-19T02:47:55;100366.27;;;6.22;92.94
34034;BME280;63481;52.588;22.472;2023-04-19T02:48:28;100363.92;;;6.24;93.01
34034;BME280;63481;52.588;22.472;2023-04-19T02:49:00;100366.63;;;6.24;93.14
34034;BME280;63481;52.588;22.472;2023-04-19T02:49:32;100362.98;;;6.28;92.86
34034;BME280;63481;52.588;22.472;2023-04-19T02:50:07;100365.28;;;6.30;92.78
34034;BME280;63481;52.588;22.472;2023-04-19T02:50:42;100363.14;;;6.32;92.80